Time;durP1;ratioP1;P1;durP2;ratioP2;P2;SDS_P1;SDS_P2;PMS_P1;PMS_P2;Temp;Humidity;BMP_temperature;BMP_pressure;BME280_temperature;BME280_humidity;BME280_pressure;Samples;Min_cycle;Max_cycle;Signal;HPM_P1;HPM_P2
2021/11/18 00:01:04;;;;;;;57.85;29.52;;;;;;;7.25;62.07;95589.53;4896687;29;20045;-82
2021/11/18 00:03:29;;;;;;;64.28;35.55;;;;;;;7.22;62.23;95586.34;4898225;29;20041;-82
2021/11/18 00:05:56;;;;;;;71.85;38.15;;;;;;;7.27;61.84;95587.53;4899162;29;20039;-82
2021/11/18 00:08:21;;;;;;;66.88;37.78;;;;;;;7.27;61.47;95590.13;4881124;29;20041;-82
2021/11/18 00:10:51;;;;;;;65.70;34.80;;;;;;;7.27;61.97;95592.72;4887821;29;20205;-83
2021/11/18 00:13:18;;;;;;;51.85;33.47;;;;;;;7.30;61.70;95592.31;4879642;29;20404;-82
2021/11/18 00:15:44;;;;;;;55.53;31.42;;;;;;;7.35;61.79;95589.97;4902373;29;20032;-82
2021/11/18 00:18:12;;;;;;;55.05;31.25;;;;;;;7.31;61.93;95591.34;4886432;29;20040;-81
2021/11/18 00:20:44;;;;;;;65.88;36.00;;;;;;;7.29;62.14;95593.31;4891503;29;20040;-82
2021/11/18 00:23:09;;;;;;;83.55;42.88;;;;;;;7.32;62.02;95593.75;4893093;24;20059;-81
2021/11/18 00:25:35;;;;;;;76.35;39.55;;;;;;;7.34;61.99;95591.78;4913257;29;20041;-82
2021/11/18 00:28:00;;;;;;;61.70;34.20;;;;;;;7.32;61.72;95590.34;4919193;29;20039;-82
2021/11/18 00:30:26;;;;;;;56.40;32.22;;;;;;;7.33;61.44;95591.97;4893774;29;20025;-81
2021/11/18 00:32:52;;;;;;;54.88;30.63;;;;;;;7.28;61.63;95591.72;4909129;29;20036;-81
2021/11/18 00:35:20;;;;;;;50.63;30.00;;;;;;;7.25;62.09;95592.09;4886338;29;20032;-81
2021/11/18 00:37:46;;;;;;;54.45;31.65;;;;;;;7.18;62.03;95590.28;4902132;29;20168;-81
2021/11/18 00:40:12;;;;;;;50.95;29.65;;;;;;;7.15;62.43;95580.31;4901572;29;20029;-82
2021/11/18 00:42:37;;;;;;;50.78;28.88;;;;;;;7.18;62.04;95584.31;4893345;29;20047;-82
2021/11/18 00:45:04;;;;;;;48.88;28.10;;;;;;;7.15;62.55;95582.91;4914816;29;20032;-81
2021/11/18 00:47:29;;;;;;;49.65;29.83;;;;;;;7.10;62.58;95582.69;4892604;29;20039;-82
2021/11/18 00:49:55;;;;;;;51.88;30.98;;;;;;;7.08;62.49;95589.03;4868514;29;20096;-81
2021/11/18 00:52:20;;;;;;;54.35;30.55;;;;;;;7.04;62.72;95586.03;4876363;29;20024;-82
2021/11/18 00:54:46;;;;;;;55.78;30.92;;;;;;;6.99;62.98;95585.00;4891339;29;20039;-82
2021/11/18 00:57:11;;;;;;;56.63;30.33;;;;;;;6.99;62.83;95575.44;4914776;29;20044;-82
2021/11/18 00:59:37;;;;;;;57.72;31.02;;;;;;;6.94;63.03;95577.81;4911418;29;20037;-82
2021/11/18 01:02:02;;;;;;;53.58;30.25;;;;;;;6.84;63.02;95583.34;4862657;29;20044;-81
2021/11/18 01:04:29;;;;;;;49.50;29.95;;;;;;;6.83;63.49;95575.75;4902146;29;20071;-82
2021/11/18 01:06:56;;;;;;;55.80;29.75;;;;;;;6.67;63.64;95571.69;4910918;29;20033;-82
2021/11/18 01:09:21;;;;;;;55.67;30.35;;;;;;;6.67;63.58;95576.03;4891210;29;20119;-80
2021/11/18 01:11:47;;;;;;;58.47;29.10;;;;;;;6.67;64.08;95568.28;4895980;29;20035;-81
2021/11/18 01:14:14;;;;;;;51.88;31.63;;;;;;;6.67;63.88;95566.53;4888129;29;20040;-81
2021/11/18 01:16:40;;;;;;;53.95;31.90;;;;;;;6.66;63.91;95575.25;4893829;29;20119;-82
2021/11/18 01:19:06;;;;;;;62.20;30.92;;;;;;;6.51;64.22;95572.78;4879785;29;20064;-82
2021/11/18 01:21:32;;;;;;;67.10;33.30;;;;;;;6.46;64.17;95577.69;4893931;29;20028;-81
2021/11/18 01:23:58;;;;;;;67.35;35.30;;;;;;;6.38;64.13;95585.59;4883941;29;20047;-82
2021/11/18 01:26:23;;;;;;;65.32;33.17;;;;;;;6.39;64.10;95584.59;4902045;29;20037;-82
2021/11/18 01:28:49;;;;;;;63.40;33.17;;;;;;;6.39;64.27;95587.19;4894406;29;20397;-82
2021/11/18 01:31:15;;;;;;;57.30;30.40;;;;;;;6.28;64.18;95572.19;4885493;29;20048;-82
2021/11/18 01:33:40;;;;;;;65.75;36.30;;;;;;;6.31;64.58;95582.13;4894661;29;20037;-81
2021/11/18 01:36:06;;;;;;;58.72;33.85;;;;;;;6.36;64.36;95584.97;4887599;29;20033;-81
2021/11/18 01:38:33;;;;;;;62.55;33.92;;;;;;;6.29;64.36;95586.69;4906106;29;20059;-81
2021/11/18 01:41:00;;;;;;;58.47;32.20;;;;;;;6.22;64.78;95580.69;4886707;29;20051;-82
2021/11/18 01:46:17;;;;;;;54.00;30.85;;;;;;;6.20;65.28;95574.91;5258205;23;20056;-82
2021/11/18 01:48:45;;;;;;;61.17;31.35;;;;;;;6.20;64.85;95567.16;4926348;29;20040;-81
2021/11/18 01:51:11;;;;;;;51.55;30.73;;;;;;;6.08;64.79;95560.88;4896206;29;20130;-82
2021/11/18 01:53:39;;;;;;;64.07;31.02;;;;;;;6.08;64.42;95568.63;4913792;29;20039;-82
2021/11/18 01:56:08;;;;;;;57.78;33.35;;;;;;;6.00;63.99;95570.34;4924730;29;20107;-82
2021/11/18 01:58:33;;;;;;;69.88;33.67;;;;;;;6.06;64.19;95573.97;4942336;29;20040;-82
2021/11/18 02:00:59;;;;;;;60.30;33.28;;;;;;;5.99;64.01;95573.09;4930779;29;20032;-82
2021/11/18 02:03:25;;;;;;;67.90;33.50;;;;;;;5.97;64.29;95575.88;4926864;29;20646;-82
2021/11/18 02:06:21;;;;;;;69.57;35.25;;;;;;;5.97;63.71;95570.72;4935535;29;20040;-82
2021/11/18 02:08:47;;;;;;;62.92;33.95;;;;;;;5.95;64.23;95577.03;4909948;29;20055;-81
2021/11/18 02:11:24;;;;;;;60.95;35.67;;;;;;;5.93;64.22;95579.03;4942440;29;20042;-82
2021/11/18 02:13:50;;;;;;;58.10;33.78;;;;;;;5.90;64.55;95575.03;4931119;29;20032;-81
2021/11/18 02:16:15;;;;;;;67.03;35.25;;;;;;;5.84;64.33;95570.53;4932624;29;20032;-83
2021/11/18 02:18:41;;;;;;;68.60;35.50;;;;;;;5.79;64.49;95572.09;4928329;29;20396;-83
2021/11/18 02:21:08;;;;;;;61.72;35.13;;;;;;;5.79;64.35;95580.63;4935687;29;20036;-83
2021/11/18 02:23:36;;;;;;;70.32;34.63;;;;;;;5.78;63.70;95591.13;4921106;29;20055;-83
2021/11/18 02:26:02;;;;;;;75.32;36.00;;;;;;;5.69;64.10;95582.69;4914688;29;20039;-83
2021/11/18 02:28:31;;;;;;;71.82;36.67;;;;;;;5.67;64.05;95584.66;4898879;29;20119;-82
2021/11/18 02:30:58;;;;;;;69.47;34.28;;;;;;;5.61;64.40;95585.41;4936384;29;20123;-82
2021/11/18 02:36:11;;;;;;;64.88;32.50;;;;;;;5.63;64.60;95583.44;5072936;23;20067;-82
2021/11/18 02:38:37;;;;;;;60.40;32.95;;;;;;;5.64;64.53;95587.59;4916486;29;20044;-82
2021/11/18 02:41:03;;;;;;;67.43;31.73;;;;;;;5.57;64.00;95590.13;4919528;29;20024;-82
2021/11/18 02:43:29;;;;;;;74.55;31.45;;;;;;;5.52;65.43;95592.44;4919424;29;20112;-83
2021/11/18 02:45:54;;;;;;;57.00;30.15;;;;;;;5.47;64.57;95593.97;4885982;29;20107;-82
2021/11/18 02:48:20;;;;;;;66.68;30.67;;;;;;;5.50;64.70;95609.06;4869596;29;20036;-82
2021/11/18 02:50:52;;;;;;;66.35;34.03;;;;;;;5.50;64.49;95603.91;4901445;29;20539;-82
2021/11/18 02:53:18;;;;;;;59.97;31.23;;;;;;;5.46;64.88;95597.53;4870706;29;20039;-82
2021/11/18 02:55:45;;;;;;;68.07;33.13;;;;;;;5.48;65.11;95605.88;4901683;29;20068;-82
2021/11/18 02:58:11;;;;;;;71.13;35.45;;;;;;;5.45;64.92;95603.66;4919205;29;20055;-82
2021/11/18 03:00:56;;;;;;;89.60;39.38;;;;;;;5.39;64.43;95598.25;4906742;29;20044;-82
2021/11/18 03:03:24;;;;;;;81.65;38.60;;;;;;;5.38;65.24;95598.44;4902543;29;20043;-82
2021/11/18 03:05:50;;;;;;;86.38;40.50;;;;;;;5.38;65.14;95606.97;4901533;29;20496;-82
2021/11/18 03:11:05;;;;;;;102.57;46.35;;;;;;;5.40;64.72;95604.22;5063759;23;20060;-81
2021/11/18 03:13:31;;;;;;;107.07;51.20;;;;;;;5.41;64.26;95606.59;4926085;29;20055;-80
2021/11/18 03:15:57;;;;;;;84.00;44.58;;;;;;;5.38;64.89;95601.81;4912223;29;20127;-81
2021/11/18 03:18:23;;;;;;;79.47;39.72;;;;;;;5.39;65.44;95606.00;4913393;29;20106;-82
2021/11/18 03:20:50;;;;;;;92.30;43.28;;;;;;;5.31;65.93;95594.97;4894313;29;20044;-82
2021/11/18 03:23:15;;;;;;;79.03;41.63;;;;;;;5.37;65.72;95602.81;4918895;29;20075;-81
2021/11/18 03:25:41;;;;;;;88.63;41.58;;;;;;;5.41;65.57;95601.44;4893635;29;20061;-81
2021/11/18 03:28:07;;;;;;;69.97;39.47;;;;;;;5.46;66.02;95603.47;4897436;29;20148;-81
2021/11/18 03:30:35;;;;;;;107.30;54.88;;;;;;;5.54;66.09;95600.81;4918626;29;20519;-81
2021/11/18 03:33:04;;;;;;;108.43;61.05;;;;;;;5.61;65.47;95598.31;4900760;29;20047;-81
2021/11/18 03:35:29;;;;;;;103.68;59.72;;;;;;;5.70;64.31;95599.81;4902205;29;20036;-81
2021/11/18 03:40:30;;;;;;;86.70;46.28;;;;;;;5.80;64.48;95610.63;5287704;23;20052;-83
2021/11/18 03:42:56;;;;;;;92.82;50.38;;;;;;;5.88;64.39;95614.88;4910389;29;20205;-83
2021/11/18 03:45:22;;;;;;;106.15;50.33;;;;;;;5.93;63.62;95615.16;4918168;29;20028;-81
2021/11/18 03:47:48;;;;;;;102.05;53.08;;;;;;;5.98;63.80;95613.63;4885117;29;20580;-82
2021/11/18 03:50:13;;;;;;;94.55;52.60;;;;;;;6.06;64.44;95619.66;4901969;29;20037;-82
2021/11/18 03:52:39;;;;;;;90.03;48.13;;;;;;;6.05;64.65;95618.88;4886002;29;20036;-81
2021/11/18 03:55:06;;;;;;;98.60;49.60;;;;;;;6.09;64.57;95616.72;4917919;29;20045;-83
2021/11/18 03:57:31;;;;;;;91.35;50.95;;;;;;;6.09;65.31;95606.38;4915430;29;20040;-81
2021/11/18 03:59:57;;;;;;;89.65;49.28;;;;;;;6.18;65.17;95613.00;4917310;29;20032;-81
2021/11/18 04:02:22;;;;;;;95.78;48.47;;;;;;;6.32;64.53;95604.41;4900386;29;20040;-82
2021/11/18 04:04:51;;;;;;;84.72;45.75;;;;;;;6.37;63.89;95602.06;4889869;29;20032;-81
2021/11/18 04:07:16;;;;;;;93.53;50.88;;;;;;;6.42;64.51;95610.06;4870635;29;20034;-82
2021/11/18 04:09:42;;;;;;;103.95;49.55;;;;;;;6.49;64.10;95605.72;4916727;29;20032;-81
2021/11/18 04:12:09;;;;;;;101.63;50.30;;;;;;;6.56;63.99;95593.69;4885099;29;20031;-82
2021/11/18 04:14:35;;;;;;;80.20;44.47;;;;;;;6.58;63.79;95596.88;4869851;29;20044;-82
2021/11/18 04:17:00;;;;;;;88.97;43.95;;;;;;;6.60;63.86;95586.34;4885636;29;20102;-83
2021/11/18 04:19:26;;;;;;;83.82;46.88;;;;;;;6.68;63.25;95580.25;4917652;29;20107;-82
2021/11/18 04:21:51;;;;;;;78.30;41.20;;;;;;;6.69;63.92;95587.00;4917872;29;20520;-84
2021/11/18 04:24:19;;;;;;;91.20;46.40;;;;;;;6.79;63.47;95585.69;4885183;29;20054;-82
2021/11/18 04:26:45;;;;;;;67.03;36.67;;;;;;;6.84;63.36;95585.94;4900515;29;20044;-82
2021/11/18 04:29:11;;;;;;;65.50;35.22;;;;;;;6.89;62.64;95588.72;4900174;29;20036;-81
2021/11/18 04:31:36;;;;;;;60.53;33.30;;;;;;;6.94;62.77;95590.75;4900512;29;20043;-82
2021/11/18 04:34:02;;;;;;;65.07;36.42;;;;;;;6.94;62.48;95603.66;4916574;29;20090;-82
2021/11/18 04:36:28;;;;;;;81.80;44.20;;;;;;;7.05;63.18;95594.59;4884740;29;20047;-82
2021/11/18 04:38:54;;;;;;;64.53;33.85;;;;;;;7.10;62.36;95605.16;4866394;29;20570;-83
2021/11/18 04:41:21;;;;;;;54.42;30.45;;;;;;;7.12;61.76;95603.97;4884358;29;20127;-84
2021/11/18 04:43:46;;;;;;;50.50;29.23;;;;;;;7.04;62.57;95604.16;4901277;29;20436;-82
2021/11/18 04:46:13;;;;;;;54.72;30.20;;;;;;;7.06;62.96;95596.19;4871229;29;20093;-83
2021/11/18 04:48:39;;;;;;;51.10;31.08;;;;;;;7.05;62.92;95599.78;4902491;29;20040;-83
2021/11/18 04:51:06;;;;;;;56.47;30.17;;;;;;;7.12;63.00;95596.22;4886997;29;20036;-83
2021/11/18 04:53:31;;;;;;;71.18;34.75;;;;;;;7.16;62.42;95601.81;4921974;29;20054;-85
2021/11/18 04:55:57;;;;;;;67.78;36.65;;;;;;;7.21;62.21;95595.09;4875964;29;20420;-79
2021/11/18 04:58:22;;;;;;;66.90;36.33;;;;;;;7.19;62.47;95589.31;4920296;29;20064;-82
2021/11/18 05:00:50;;;;;;;68.43;37.38;;;;;;;7.28;62.38;95605.44;4922653;29;20052;-82
2021/11/18 05:03:16;;;;;;;83.65;41.60;;;;;;;7.32;62.97;95600.69;4875219;29;20044;-86
2021/11/18 05:05:42;;;;;;;82.03;41.38;;;;;;;7.30;63.12;95600.88;4881358;29;20063;-83
2021/11/18 05:08:07;;;;;;;85.75;45.33;;;;;;;7.26;62.59;95601.47;4899589;29;20065;-80
2021/11/18 05:10:33;;;;;;;88.60;44.40;;;;;;;7.32;63.30;95611.03;4930964;29;20078;-80
2021/11/18 05:12:58;;;;;;;98.78;48.22;;;;;;;7.32;63.12;95617.03;4903582;29;20046;-80
2021/11/18 05:15:29;;;;;;;124.82;62.78;;;;;;;7.34;62.82;95614.25;4886654;29;20214;-80
2021/11/18 05:17:55;;;;;;;129.98;74.82;;;;;;;7.31;62.84;95612.81;4964579;23;20076;-80
2021/11/18 05:20:21;;;;;;;137.85;70.10;;;;;;;7.32;62.40;95623.97;4929353;29;20036;-81
2021/11/18 05:22:47;;;;;;;125.38;65.10;;;;;;;7.21;63.13;95631.28;4929385;29;20079;-81
2021/11/18 05:25:13;;;;;;;97.38;54.53;;;;;;;7.21;62.56;95630.50;4914661;29;20044;-81
2021/11/18 05:27:41;;;;;;;92.57;52.22;;;;;;;7.15;63.16;95632.03;4927009;29;20064;-81
2021/11/18 05:30:11;;;;;;;84.13;51.42;;;;;;;7.15;62.41;95639.81;4905388;29;20024;-79
2021/11/18 05:32:37;;;;;;;77.93;46.75;;;;;;;7.17;62.52;95640.44;4939584;29;20044;-81
2021/11/18 05:35:03;;;;;;;80.68;43.97;;;;;;;7.14;62.41;95643.38;4919681;29;20628;-82
2021/11/18 05:37:32;;;;;;;72.25;42.40;;;;;;;7.05;62.98;95652.28;4947256;29;20052;-82
2021/11/18 05:39:58;;;;;;;70.90;42.95;;;;;;;7.00;63.04;95654.66;4901675;29;20488;-82
2021/11/18 05:42:23;;;;;;;74.43;46.28;;;;;;;7.01;63.35;95656.25;4918626;29;20039;-82
2021/11/18 05:44:59;;;;;;;87.05;50.10;;;;;;;7.10;62.70;95657.69;4914404;29;20039;-81
2021/11/18 05:47:24;;;;;;;99.80;55.13;;;;;;;7.23;62.64;95654.38;4919738;29;20511;-81
2021/11/18 05:49:50;;;;;;;93.60;49.42;;;;;;;7.25;62.63;95651.59;4912114;29;20024;-82
2021/11/18 05:54:43;;;;;;;87.65;50.22;;;;;;;7.18;63.12;95654.97;4907168;29;20139;-83
2021/11/18 05:57:09;;;;;;;126.78;77.15;;;;;;;7.43;62.33;95655.28;4911204;29;20040;-83
2021/11/18 05:59:34;;;;;;;73.80;42.53;;;;;;;7.51;61.58;95657.72;4870502;29;20428;-81
2021/11/18 06:02:00;;;;;;;103.32;60.17;;;;;;;7.67;61.44;95655.81;4901967;29;20036;-81
2021/11/18 06:04:26;;;;;;;92.63;51.00;;;;;;;7.76;61.47;95658.03;4886148;29;20032;-81
2021/11/18 06:06:52;;;;;;;78.97;46.47;;;;;;;7.94;60.77;95660.09;4902633;29;20036;-83
2021/11/18 06:09:17;;;;;;;69.45;40.20;;;;;;;8.04;60.41;95651.97;4889667;29;20477;-82
2021/11/18 06:11:43;;;;;;;71.78;43.92;;;;;;;8.07;60.54;95651.56;4905721;29;20040;-81
2021/11/18 06:14:09;;;;;;;79.13;40.10;;;;;;;8.22;60.07;95659.97;4921304;29;20039;-81
2021/11/18 06:16:35;;;;;;;75.55;36.88;;;;;;;8.37;59.74;95657.25;4900467;29;20044;-83
2021/11/18 06:19:01;;;;;;;73.65;39.00;;;;;;;8.47;59.37;95662.06;4904053;29;20044;-82
2021/11/18 06:21:28;;;;;;;54.83;34.20;;;;;;;8.47;58.62;95667.25;4888796;29;20484;-81
2021/11/18 06:23:54;;;;;;;58.10;33.47;;;;;;;8.46;59.24;95660.44;4903914;29;20083;-83
2021/11/18 06:26:20;;;;;;;59.35;35.53;;;;;;;8.52;59.03;95667.44;4887471;29;20044;-82
2021/11/18 06:28:48;;;;;;;75.40;36.67;;;;;;;8.54;58.52;95674.00;4888320;29;20040;-83
2021/11/18 06:31:14;;;;;;;68.45;37.40;;;;;;;8.52;58.14;95670.03;4887276;29;20445;-83
2021/11/18 06:33:40;;;;;;;67.78;36.60;;;;;;;8.48;58.16;95671.44;4871211;29;20103;-82
2021/11/18 06:36:06;;;;;;;69.47;37.08;;;;;;;8.52;58.34;95675.22;4887305;29;20036;-83
2021/11/18 06:38:31;;;;;;;66.13;38.30;;;;;;;8.52;58.58;95680.41;4886997;29;20032;-83
2021/11/18 06:41:08;;;;;;;91.00;41.25;;;;;;;8.32;59.02;95686.31;4885959;29;20028;-82
2021/11/18 06:43:34;;;;;;;94.75;40.90;;;;;;;8.32;59.53;95675.16;4918722;29;20040;-83
2021/11/18 06:46:00;;;;;;;84.53;41.85;;;;;;;8.30;58.99;95677.16;4902291;29;20060;-81
2021/11/18 06:48:30;;;;;;;92.13;45.17;;;;;;;8.28;59.17;95685.09;4886170;29;20043;-83
2021/11/18 06:50:56;;;;;;;83.38;40.72;;;;;;;8.30;58.65;95680.53;4887150;29;20569;-83
2021/11/18 06:53:31;;;;;;;80.95;40.95;;;;;;;8.34;58.27;95689.53;4902056;29;20131;-83
2021/11/18 06:55:57;;;;;;;79.15;39.88;;;;;;;8.38;58.56;95687.34;4887158;29;20104;-82
2021/11/18 06:58:22;;;;;;;93.70;40.63;;;;;;;8.30;58.21;95693.50;4886071;29;20135;-82
2021/11/18 07:00:47;;;;;;;89.05;42.13;;;;;;;8.33;58.33;95697.47;4871193;29;20036;-82
2021/11/18 07:03:13;;;;;;;86.63;40.42;;;;;;;8.15;59.09;95695.44;4907094;29;20044;-82
2021/11/18 07:05:39;;;;;;;81.55;42.85;;;;;;;8.00;59.31;95692.19;4900970;29;20054;-82
2021/11/18 07:08:05;;;;;;;89.15;43.05;;;;;;;7.93;59.53;95702.50;4885687;29;20531;-82
2021/11/18 07:10:31;;;;;;;90.25;42.45;;;;;;;7.89;60.25;95696.13;4885379;29;20048;-83
2021/11/18 07:12:56;;;;;;;79.97;38.85;;;;;;;7.65;59.86;95689.66;4886005;29;20039;-83
2021/11/18 07:15:22;;;;;;;85.00;40.22;;;;;;;7.65;60.36;95699.22;4886787;29;20036;-82
2021/11/18 07:17:48;;;;;;;82.55;39.80;;;;;;;7.62;60.46;95699.56;4905060;29;20044;-82
2021/11/18 07:20:13;;;;;;;82.72;39.33;;;;;;;7.63;60.38;95707.16;4889068;29;20036;-83
2021/11/18 07:22:39;;;;;;;76.15;36.13;;;;;;;7.58;60.64;95704.34;4871594;29;20059;-82
2021/11/18 07:25:11;;;;;;;76.72;36.67;;;;;;;7.65;60.16;95705.19;4871130;29;20088;-82
2021/11/18 07:27:36;;;;;;;77.90;37.35;;;;;;;7.71;60.04;95699.25;4899961;29;20036;-84
2021/11/18 07:30:03;;;;;;;74.30;36.15;;;;;;;7.78;59.91;95704.44;4871693;29;20039;-84
2021/11/18 07:32:29;;;;;;;67.78;35.63;;;;;;;7.86;59.97;95695.72;4901795;29;20070;-82
2021/11/18 07:34:54;;;;;;;84.07;37.38;;;;;;;7.90;60.21;95704.69;4888421;29;20036;-82
2021/11/18 07:37:20;;;;;;;64.28;34.38;;;;;;;8.01;59.58;95707.53;4887448;29;20040;-83
2021/11/18 07:39:45;;;;;;;67.43;36.60;;;;;;;8.04;59.80;95704.56;4902975;29;20044;-84
2021/11/18 07:45:06;;;;;;;60.28;35.13;;;;;;;8.26;59.08;95713.00;4918379;29;20059;-84
2021/11/18 07:47:35;;;;;;;66.90;34.25;;;;;;;8.38;59.68;95715.84;5079149;23;20014;-83
2021/11/18 07:50:01;;;;;;;60.72;33.90;;;;;;;8.49;58.68;95719.69;4890106;29;20448;-84
2021/11/18 07:52:26;;;;;;;62.97;32.92;;;;;;;8.53;58.82;95715.69;4907602;29;20169;-81
2021/11/18 07:54:52;;;;;;;56.10;31.38;;;;;;;8.58;58.35;95716.69;4897329;29;20049;-83
2021/11/18 07:57:18;;;;;;;67.05;32.88;;;;;;;8.65;58.55;95722.69;4874607;29;20108;-82
2021/11/18 07:59:44;;;;;;;54.80;31.70;;;;;;;8.73;57.97;95719.91;4892611;29;20046;-83
2021/11/18 08:02:09;;;;;;;54.40;31.60;;;;;;;8.75;57.78;95714.53;4874891;29;20049;-83
2021/11/18 08:04:35;;;;;;;57.20;31.05;;;;;;;8.76;57.97;95712.72;4895610;29;20165;-83
2021/11/18 08:07:04;;;;;;;68.00;30.63;;;;;;;8.89;57.70;95717.94;4876935;29;20041;-84
2021/11/18 08:09:30;;;;;;;67.25;31.30;;;;;;;8.90;57.56;95712.53;4890073;29;20044;-83
2021/11/18 08:11:57;;;;;;;47.00;29.38;;;;;;;8.99;57.49;95707.97;4891254;29;20100;-82
2021/11/18 08:14:22;;;;;;;51.50;30.30;;;;;;;9.07;57.11;95709.53;4883659;29;20100;-83
2021/11/18 08:16:48;;;;;;;58.28;28.65;;;;;;;9.16;56.54;95716.16;4883371;29;20064;-83
2021/11/18 08:19:14;;;;;;;40.22;27.42;;;;;;;9.18;56.97;95719.34;4885561;29;20052;-83
2021/11/18 08:21:39;;;;;;;53.45;29.10;;;;;;;9.20;56.74;95718.13;4871659;29;20084;-82
2021/11/18 08:24:06;;;;;;;44.72;27.65;;;;;;;9.27;56.25;95721.53;4905361;29;20044;-82
2021/11/18 08:26:31;;;;;;;53.80;29.15;;;;;;;9.27;56.37;95720.72;4876101;29;20041;-82
2021/11/18 08:28:59;;;;;;;68.30;29.40;;;;;;;9.32;56.04;95728.72;4913096;29;20080;-82
2021/11/18 08:31:25;;;;;;;41.90;27.95;;;;;;;9.35;55.85;95722.31;4906838;29;20036;-80
2021/11/18 08:33:52;;;;;;;47.83;29.67;;;;;;;9.41;56.40;95716.31;4866280;29;20412;-83
2021/11/18 08:36:19;;;;;;;51.20;32.28;;;;;;;9.56;55.07;95730.66;4879454;29;20094;-82
2021/11/18 08:38:45;;;;;;;53.88;31.45;;;;;;;9.60;55.12;95731.88;4883579;29;20033;-83
2021/11/18 08:41:11;;;;;;;48.22;28.52;;;;;;;9.67;55.49;95736.25;4881464;29;20044;-83
2021/11/18 08:43:39;;;;;;;62.03;30.15;;;;;;;9.73;54.77;95740.63;4897842;29;20048;-84
2021/11/18 08:46:05;;;;;;;44.47;28.98;;;;;;;9.74;54.60;95737.03;4877227;29;20097;-83
2021/11/18 08:48:31;;;;;;;61.80;32.25;;;;;;;9.78;55.16;95739.03;4888467;29;20072;-83
2021/11/18 08:50:57;;;;;;;55.03;30.38;;;;;;;9.83;54.50;95741.81;4871475;29;20037;-83
2021/11/18 08:53:25;;;;;;;46.78;29.45;;;;;;;9.85;54.85;95733.81;4877578;29;20129;-82
2021/11/18 08:55:50;;;;;;;48.72;29.17;;;;;;;9.81;54.38;95743.00;4849858;29;20127;-83
2021/11/18 08:58:18;;;;;;;46.45;26.42;;;;;;;9.81;55.10;95743.00;4864376;29;20540;-83
2021/11/18 09:00:58;;;;;;;37.63;25.42;;;;;;;9.74;55.03;95745.59;4886720;29;20120;-83
2021/11/18 09:03:25;;;;;;;50.67;25.25;;;;;;;9.77;55.37;95737.44;4894529;29;20032;-82
2021/11/18 09:05:51;;;;;;;44.20;24.08;;;;;;;9.72;55.84;95739.03;4863237;29;20061;-82
2021/11/18 09:08:17;;;;;;;43.08;23.48;;;;;;;9.67;56.52;95742.25;4887275;29;20540;-83
2021/11/18 09:10:43;;;;;;;36.10;22.52;;;;;;;9.62;56.47;95744.66;4879911;29;20025;-83
2021/11/18 09:13:09;;;;;;;33.58;22.55;;;;;;;9.46;57.43;95745.88;4864236;29;20033;-84
2021/11/18 09:15:35;;;;;;;36.80;21.50;;;;;;;9.37;58.18;95741.88;4887723;29;20037;-83
2021/11/18 09:18:01;;;;;;;33.08;21.95;;;;;;;9.27;58.73;95741.47;4902393;29;20044;-83
2021/11/18 09:20:27;;;;;;;34.92;22.52;;;;;;;9.21;59.29;95739.69;4896059;29;20187;-84
2021/11/18 09:22:59;;;;;;;33.78;21.58;;;;;;;9.22;59.44;95743.88;4862279;29;20437;-83
2021/11/18 09:25:29;;;;;;;35.03;22.25;;;;;;;9.20;59.78;95738.88;4879182;29;20037;-82
2021/11/18 09:27:55;;;;;;;29.55;20.08;;;;;;;9.21;59.87;95734.50;4881095;29;20033;-83
2021/11/18 09:30:45;;;;;;;37.25;18.75;;;;;;;9.13;59.39;95734.72;4886539;29;20071;-83
2021/11/18 09:33:10;;;;;;;33.03;20.27;;;;;;;9.10;60.14;95742.88;4891606;29;20139;-80
2021/11/18 09:35:40;;;;;;;30.75;20.17;;;;;;;8.98;60.69;95740.91;4891673;29;20041;-83
2021/11/18 09:38:06;;;;;;;32.85;20.85;;;;;;;9.01;59.88;95743.09;4875952;29;20048;-79
2021/11/18 09:40:54;;;;;;;30.38;18.65;;;;;;;8.95;62.83;95741.28;4894173;29;20037;-80
2021/11/18 09:43:34;;;;;;;30.38;19.17;;;;;;;8.98;62.75;95737.50;4881187;29;20076;-78
2021/11/18 09:46:31;;;;;;;33.80;20.00;;;;;;;8.99;64.02;95737.31;4890404;29;20501;-78
2021/11/18 09:49:28;;;;;;;43.55;19.95;;;;;;;9.14;61.95;95738.91;4890573;29;20044;-79
2021/11/18 09:52:11;;;;;;;35.08;18.73;;;;;;;9.23;62.66;95737.69;4874932;29;20140;-78
2021/11/18 09:54:51;;;;;;;40.67;20.92;;;;;;;9.31;61.76;95732.31;4889055;29;20048;-79
2021/11/18 09:57:22;;;;;;;34.92;20.15;;;;;;;9.41;61.59;95737.88;4877295;29;20581;-78
2021/11/18 09:59:57;;;;;;;32.60;21.30;;;;;;;9.54;60.67;95726.69;4889152;29;20068;-78
2021/11/18 10:02:53;;;;;;;38.47;21.45;;;;;;;9.68;60.20;95730.06;4890617;29;20097;-78
2021/11/18 10:05:31;;;;;;;31.15;20.58;;;;;;;9.80;60.76;95725.84;4884468;29;20511;-79
2021/11/18 10:08:08;;;;;;;31.20;18.80;;;;;;;9.92;60.80;95724.19;4875553;29;20532;-79
2021/11/18 10:10:52;;;;;;;37.60;19.02;;;;;;;10.07;59.75;95722.13;4875950;29;20045;-78
2021/11/18 10:13:20;;;;;;;25.20;18.50;;;;;;;10.25;60.04;95718.09;4877728;29;20103;-78
2021/11/18 10:15:51;;;;;;;32.25;20.70;;;;;;;10.37;59.12;95712.03;4914339;29;20056;-78
2021/11/18 10:18:16;;;;;;;33.28;20.85;;;;;;;10.44;58.11;95706.81;4896026;29;20100;-79
2021/11/18 10:20:43;;;;;;;54.35;25.92;;;;;;;10.50;57.99;95701.56;4898577;29;20056;-79
2021/11/18 10:23:19;;;;;;;52.03;31.33;;;;;;;10.56;58.18;95702.53;4895597;29;20047;-78
2021/11/18 10:25:48;;;;;;;42.70;25.25;;;;;;;10.52;57.62;95701.34;4862925;29;20047;-78
2021/11/18 10:28:20;;;;;;;45.10;25.30;;;;;;;10.52;57.73;95702.16;4898186;29;20047;-78
2021/11/18 10:30:50;;;;;;;42.20;23.55;;;;;;;10.52;56.93;95699.53;4894381;29;20072;-79
2021/11/18 10:33:19;;;;;;;32.30;19.10;;;;;;;10.49;57.58;95683.56;4901060;29;20057;-78
2021/11/18 10:35:47;;;;;;;35.88;21.52;;;;;;;10.42;57.67;95698.44;4875646;29;20060;-78
2021/11/18 10:38:24;;;;;;;34.72;24.25;;;;;;;10.41;57.58;95696.81;4900182;29;20049;-79
2021/11/18 10:41:25;;;;;;;38.20;25.42;;;;;;;10.44;57.05;95692.00;4886051;29;20036;-80
2021/11/18 10:44:24;;;;;;;42.17;26.90;;;;;;;10.42;55.91;95688.03;4872384;29;20523;-82
2021/11/18 10:47:04;;;;;;;46.88;28.77;;;;;;;10.43;56.13;95687.03;4865695;29;20424;-80
2021/11/18 10:50:03;;;;;;;45.72;25.92;;;;;;;10.35;55.92;95684.66;4895072;29;20548;-81
2021/11/18 10:52:36;;;;;;;32.90;21.90;;;;;;;10.33;55.93;95689.25;4871809;29;20041;-81
2021/11/18 10:55:10;;;;;;;42.58;25.90;;;;;;;10.18;56.33;95682.50;4888811;29;20483;-81
2021/11/18 10:57:49;;;;;;;40.78;22.05;;;;;;;10.09;56.28;95682.97;4855398;29;20090;-81
2021/11/18 11:00:21;;;;;;;35.05;20.33;;;;;;;10.07;56.67;95679.75;4862940;29;20028;-81
2021/11/18 11:02:46;;;;;;;29.80;20.33;;;;;;;10.04;56.62;95680.97;4871123;29;20508;-81
2021/11/18 11:05:37;;;;;;;44.25;20.27;;;;;;;9.94;56.51;95680.63;4871241;29;20036;-80
2021/11/18 11:08:19;;;;;;;31.50;21.73;;;;;;;9.93;56.56;95679.03;4892939;29;20088;-81
2021/11/18 11:10:45;;;;;;;25.73;19.15;;;;;;;10.01;55.95;95658.00;4858555;29;20040;-81
2021/11/18 11:13:16;;;;;;;34.42;19.48;;;;;;;9.94;55.71;95665.03;4857223;29;20465;-81
2021/11/18 11:16:14;;;;;;;34.38;19.52;;;;;;;9.84;56.32;95659.47;4879467;29;20496;-81
2021/11/18 11:18:51;;;;;;;28.60;19.70;;;;;;;9.82;54.93;95666.69;4887558;29;20064;-81
2021/11/18 11:21:29;;;;;;;31.25;18.02;;;;;;;9.79;55.41;95667.09;4886336;29;20041;-81
2021/11/18 11:24:25;;;;;;;31.77;18.10;;;;;;;9.76;54.90;95667.47;4884844;29;20041;-81
2021/11/18 11:27:27;;;;;;;35.95;23.17;;;;;;;9.73;55.07;95678.28;4886524;29;20029;-81
2021/11/18 11:30:19;;;;;;;44.22;26.08;;;;;;;9.75;55.02;95676.28;4876670;29;20524;-81
2021/11/18 11:33:17;;;;;;;28.17;18.63;;;;;;;9.77;54.51;95663.91;4857776;29;20037;-80
2021/11/18 11:35:51;;;;;;;29.92;19.60;;;;;;;9.63;54.66;95668.34;4871396;29;20121;-81
2021/11/18 11:38:32;;;;;;;25.85;17.42;;;;;;;9.62;55.18;95657.16;4872744;29;20041;-81
2021/11/18 11:41:16;;;;;;;33.97;19.13;;;;;;;9.42;56.16;95661.59;4855837;29;20056;-81
2021/11/18 11:43:48;;;;;;;31.70;20.95;;;;;;;9.41;56.29;95662.59;4889977;29;20044;-81
2021/11/18 11:46:46;;;;;;;34.28;19.92;;;;;;;9.40;56.48;95668.00;4867548;29;20044;-81
2021/11/18 11:49:33;;;;;;;35.17;21.45;;;;;;;9.32;55.58;95667.22;4878649;29;20045;-81